createdAt,value
2018-08-30T00:02:12.095Z,23.65
2018-08-30T00:04:40.897Z,23.84
2018-08-30T00:07:10.373Z,23.89
2018-08-30T00:09:39.365Z,23.81
2018-08-30T00:12:08.288Z,24.28
2018-08-30T00:14:37.701Z,24.43
2018-08-30T00:17:06.967Z,24.41
2018-08-30T00:19:36.083Z,24.37
2018-08-30T00:22:05.045Z,24.28
2018-08-30T00:24:34.320Z,23.99
2018-08-30T00:27:03.440Z,24.25
2018-08-30T00:29:32.592Z,24.13
2018-08-30T00:32:01.569Z,23.99
2018-08-30T00:34:31.069Z,23.87
2018-08-30T00:37:00.321Z,24.03
2018-08-30T00:39:29.540Z,24.21
2018-08-30T00:41:58.441Z,24.20
2018-08-30T00:44:27.470Z,24.00
2018-08-30T00:46:57.335Z,23.97
2018-08-30T00:49:26.768Z,24.17
2018-08-30T00:51:55.895Z,24.07
2018-08-30T00:54:24.780Z,24.13
2018-08-30T00:56:54.026Z,23.89
2018-08-30T00:59:23.008Z,23.92
2018-08-30T01:01:51.827Z,23.80
2018-08-30T01:04:20.859Z,23.79
2018-08-30T01:06:49.796Z,23.87
2018-08-30T01:09:19.345Z,23.65
2018-08-30T01:11:48.455Z,23.52
2018-08-30T01:14:17.707Z,23.47
2018-08-30T01:16:46.576Z,23.44
2018-08-30T01:19:15.452Z,23.72
2018-08-30T01:21:44.307Z,23.74
2018-08-30T01:24:13.325Z,23.82
2018-08-30T01:26:42.239Z,23.93
2018-08-30T01:29:11.171Z,23.88
2018-08-30T01:31:40.141Z,23.82
2018-08-30T01:34:12.268Z,23.85
2018-08-30T01:36:42.672Z,24.04
2018-08-30T01:39:12.364Z,23.79
2018-08-30T01:41:42.671Z,23.68
2018-08-30T01:44:12.231Z,23.63
2018-08-30T01:46:41.107Z,23.52
2018-08-30T01:49:10.075Z,23.79
2018-08-30T01:51:39.041Z,23.63
2018-08-30T01:54:08.133Z,23.60
2018-08-30T01:56:37.083Z,23.54
2018-08-30T01:59:06.067Z,23.42
2018-08-30T02:01:34.860Z,23.36
2018-08-30T02:04:03.899Z,23.16
2018-08-30T02:06:33.852Z,23.04
2018-08-30T02:09:03.168Z,22.98
2018-08-30T02:11:32.123Z,22.91
2018-08-30T02:14:01.555Z,22.90
2018-08-30T02:16:30.894Z,22.91
2018-08-30T02:18:59.766Z,23.18
2018-08-30T02:21:29.182Z,23.23
2018-08-30T02:23:58.115Z,23.42
2018-08-30T02:26:27.512Z,23.75
2018-08-30T02:28:56.531Z,23.59
2018-08-30T02:31:25.621Z,23.66
2018-08-30T02:33:54.589Z,23.71
2018-08-30T02:36:23.738Z,23.75
2018-08-30T02:38:52.809Z,23.74
2018-08-30T02:41:22.232Z,23.60
2018-08-30T02:43:51.323Z,23.89
2018-08-30T02:46:20.660Z,23.82
2018-08-30T02:48:49.792Z,23.80
2018-08-30T02:51:18.924Z,23.79
2018-08-30T02:53:47.973Z,23.50
2018-08-30T02:56:17.234Z,23.25
2018-08-30T02:58:46.913Z,23.36
2018-08-30T03:01:16.117Z,23.13
2018-08-30T03:03:45.158Z,22.97
2018-08-30T03:06:14.453Z,22.82
2018-08-30T03:08:43.494Z,22.74
2018-08-30T03:11:12.355Z,22.70
2018-08-30T03:13:41.713Z,22.65
2018-08-30T03:16:10.722Z,22.76
2018-08-30T03:18:39.871Z,22.56
2018-08-30T03:21:09.150Z,22.50
2018-08-30T03:23:38.118Z,22.57
2018-08-30T03:26:07.550Z,22.53
2018-08-30T03:28:36.551Z,22.69
2018-08-30T03:31:05.756Z,22.61
2018-08-30T03:33:34.774Z,22.49
2018-08-30T03:36:03.755Z,22.58
2018-08-30T03:38:32.714Z,22.53
2018-08-30T03:41:01.740Z,22.51
2018-08-30T03:43:30.623Z,22.43
2018-08-30T03:45:59.888Z,22.41
2018-08-30T03:48:29.026Z,22.36
2018-08-30T03:50:58.246Z,22.62
2018-08-30T03:53:27.989Z,22.33
2018-08-30T03:55:56.899Z,22.77
2018-08-30T03:58:26.282Z,22.53
2018-08-30T04:00:55.580Z,22.28
2018-08-30T04:03:24.874Z,22.21
2018-08-30T04:05:54.107Z,22.29
2018-08-30T04:08:23.645Z,22.35
2018-08-30T04:10:53.010Z,22.39
2018-08-30T04:13:22.689Z,22.48
2018-08-30T04:15:51.806Z,22.47
2018-08-30T04:18:20.955Z,22.46
2018-08-30T04:20:50.197Z,22.54
2018-08-30T04:23:19.494Z,23.07
2018-08-30T04:25:48.599Z,22.66
2018-08-30T04:28:18.051Z,22.59
2018-08-30T04:30:47.457Z,22.69
2018-08-30T04:33:16.589Z,22.73
2018-08-30T04:35:45.884Z,22.93
2018-08-30T04:38:15.041Z,22.84
2018-08-30T04:40:44.251Z,23.12
2018-08-30T04:43:13.571Z,23.08
2018-08-30T04:45:42.532Z,23.10
2018-08-30T04:48:11.942Z,23.03
2018-08-30T04:50:41.618Z,23.13
2018-08-30T04:53:10.871Z,23.26
2018-08-30T04:55:40.148Z,23.14
2018-08-30T04:58:09.320Z,23.22
2018-08-30T05:00:38.830Z,23.06
2018-08-30T05:03:07.733Z,22.88
2018-08-30T05:05:36.698Z,22.89
2018-08-30T05:08:05.799Z,22.79
2018-08-30T05:10:35.260Z,22.68
2018-08-30T05:13:04.678Z,22.79
2018-08-30T05:15:33.734Z,22.65
2018-08-30T05:18:02.657Z,22.66
2018-08-30T05:20:31.908Z,22.77
2018-08-30T05:23:01.009Z,22.96
2018-08-30T05:25:29.894Z,23.23
2018-08-30T05:27:58.858Z,23.43
2018-08-30T05:30:28.108Z,23.64
2018-08-30T05:32:57.758Z,24.19
2018-08-30T05:35:26.982Z,23.88
2018-08-30T05:37:56.004Z,23.90
2018-08-30T05:40:25.053Z,23.92
2018-08-30T05:42:54.145Z,24.02
2018-08-30T05:45:23.092Z,24.09
2018-08-30T05:47:52.462Z,24.25
2018-08-30T05:50:21.672Z,24.50
2018-08-30T05:52:51.066Z,24.61
2018-08-30T05:55:20.051Z,25.00
2018-08-30T05:57:49.270Z,24.89
2018-08-30T06:00:18.354Z,25.01
2018-08-30T06:02:47.350Z,25.05
2018-08-30T06:05:16.493Z,25.04
2018-08-30T06:07:45.850Z,25.14
2018-08-30T06:10:14.939Z,25.19
2018-08-30T06:12:43.898Z,25.64
2018-08-30T06:15:12.898Z,25.55
2018-08-30T06:17:41.872Z,25.53
2018-08-30T06:20:10.809Z,25.65
2018-08-30T06:22:39.768Z,25.78
2018-08-30T06:25:08.790Z,26.19
2018-08-30T06:27:38.407Z,26.65
2018-08-30T06:30:07.435Z,26.32
2018-08-30T06:32:36.900Z,26.36
2018-08-30T06:35:06.520Z,26.67
2018-08-30T06:37:35.766Z,26.28
2018-08-30T06:40:04.996Z,26.90
2018-08-30T06:42:34.250Z,26.35
2018-08-30T06:45:03.650Z,26.60
2018-08-30T06:47:33.214Z,26.55
2018-08-30T06:50:02.440Z,27.12
2018-08-30T06:52:31.694Z,26.42
2018-08-30T06:55:01.060Z,26.33
2018-08-30T06:57:30.062Z,26.26
2018-08-30T06:59:59.081Z,26.33
2018-08-30T07:02:28.244Z,26.25
2018-08-30T07:04:57.744Z,26.44
2018-08-30T07:07:27.101Z,26.71
2018-08-30T07:09:56.027Z,26.75
2018-08-30T07:12:24.966Z,26.66
2018-08-30T07:14:54.391Z,26.80
2018-08-30T07:17:23.808Z,26.46
2018-08-30T07:19:53.050Z,26.56
2018-08-30T07:22:22.401Z,26.74
2018-08-30T07:24:51.850Z,26.93
2018-08-30T07:27:21.176Z,26.78
2018-08-30T07:29:50.466Z,26.82
2018-08-30T07:32:19.601Z,26.76
2018-08-30T07:34:49.273Z,26.96
2018-08-30T07:37:18.820Z,27.32
2018-08-30T07:39:48.201Z,27.47
2018-08-30T07:42:17.198Z,27.95
2018-08-30T07:44:46.494Z,27.89
2018-08-30T07:47:15.711Z,28.22
2018-08-30T07:49:44.590Z,28.50
2018-08-30T07:52:14.019Z,28.68
2018-08-30T07:54:42.894Z,28.88
2018-08-30T07:57:11.956Z,28.46
2018-08-30T07:59:41.083Z,28.53
2018-08-30T08:02:10.142Z,28.86
2018-08-30T08:04:39.700Z,29.53
2018-08-30T08:07:09.130Z,29.21
2018-08-30T08:09:38.254Z,29.24
2018-08-30T08:12:07.711Z,29.78
2018-08-30T08:14:38.536Z,30.17
2018-08-30T08:17:07.957Z,30.27
2018-08-30T08:19:37.204Z,30.15
2018-08-30T08:22:06.697Z,29.96
2018-08-30T08:24:36.006Z,29.28
2018-08-30T08:27:05.760Z,29.32
2018-08-30T08:29:34.890Z,29.47
2018-08-30T08:32:04.158Z,29.65
2018-08-30T08:34:33.286Z,29.90
2018-08-30T08:37:02.704Z,29.56
2018-08-30T08:39:31.612Z,29.87
2018-08-30T08:42:00.946Z,29.33
2018-08-30T08:44:29.871Z,29.32
2018-08-30T08:46:59.130Z,29.66
2018-08-30T08:49:28.517Z,30.40
2018-08-30T08:51:57.738Z,29.79
2018-08-30T08:54:26.949Z,30.25
2018-08-30T08:56:56.288Z,29.70
2018-08-30T08:59:25.665Z,30.39
2018-08-30T09:01:54.650Z,30.65
2018-08-30T09:04:24.266Z,30.32
2018-08-30T09:06:53.637Z,29.48
2018-08-30T09:09:22.730Z,30.05
2018-08-30T09:11:52.028Z,30.16
2018-08-30T09:14:20.987Z,30.47
2018-08-30T09:16:50.509Z,30.81
2018-08-30T09:19:19.906Z,29.89
2018-08-30T09:21:48.818Z,29.97
2018-08-30T09:24:17.788Z,30.34
2018-08-30T09:26:47.027Z,30.61
2018-08-30T09:29:16.374Z,30.57
2018-08-30T09:31:45.392Z,30.74
2018-08-30T09:34:14.962Z,30.56
2018-08-30T09:36:44.220Z,30.09
2018-08-30T09:39:13.145Z,30.84
2018-08-30T09:41:42.655Z,30.64
2018-08-30T09:44:11.692Z,30.46
2018-08-30T09:46:40.794Z,30.38
2018-08-30T09:49:10.139Z,30.59
2018-08-30T09:51:39.148Z,30.79
2018-08-30T09:54:08.323Z,30.10
2018-08-30T09:56:37.736Z,30.11
2018-08-30T09:59:07.282Z,29.68
2018-08-30T10:01:41.348Z,30.00
2018-08-30T10:04:10.412Z,30.33
2018-08-30T10:06:39.627Z,30.65
2018-08-30T10:09:10.098Z,30.31
2018-08-30T10:11:39.652Z,30.24
2018-08-30T10:14:09.735Z,29.66
2018-08-30T10:16:38.777Z,30.69
2018-08-30T10:19:07.722Z,30.11
2018-08-30T10:21:36.973Z,30.44
2018-08-30T10:24:05.879Z,30.51
2018-08-30T10:26:34.769Z,30.92
2018-08-30T10:29:03.671Z,30.79
2018-08-30T10:31:32.654Z,30.39
2018-08-30T10:34:01.964Z,30.24
2018-08-30T10:36:31.582Z,30.15
2018-08-30T10:39:00.741Z,29.71
2018-08-30T10:41:30.037Z,30.22
2018-08-30T10:43:59.311Z,30.37
2018-08-30T10:46:28.191Z,30.56
2018-08-30T10:48:57.185Z,29.94
2018-08-30T10:51:26.108Z,30.08
2018-08-30T10:53:55.171Z,30.38
2018-08-30T10:56:24.559Z,30.01
2018-08-30T10:58:54.095Z,30.22
2018-08-30T11:01:23.172Z,30.63
2018-08-30T11:03:52.126Z,30.35
2018-08-30T11:06:21.023Z,30.22
2018-08-30T11:08:50.057Z,30.19
2018-08-30T11:11:18.897Z,30.87
2018-08-30T11:13:48.594Z,30.62
2018-08-30T11:16:17.512Z,30.44
2018-08-30T11:18:46.373Z,30.04
2018-08-30T11:21:15.386Z,30.65
2018-08-30T11:23:44.347Z,30.78
2018-08-30T11:26:13.377Z,31.51
2018-08-30T11:28:42.264Z,31.22
2018-08-30T11:31:11.131Z,31.03
2018-08-30T11:33:40.168Z,30.39
2018-08-30T11:36:09.148Z,30.65
2018-08-30T11:38:38.104Z,30.48
2018-08-30T11:41:07.077Z,30.57
2018-08-30T11:43:36.125Z,30.47
2018-08-30T11:46:05.461Z,30.96
2018-08-30T11:48:34.907Z,30.77
2018-08-30T11:51:03.969Z,30.30
2018-08-30T11:53:32.989Z,30.10
2018-08-30T11:56:01.809Z,30.28
2018-08-30T11:58:30.720Z,30.85
2018-08-30T12:00:59.794Z,30.18
2018-08-30T12:03:28.696Z,30.72
2018-08-30T12:05:57.612Z,29.88
2018-08-30T12:08:26.514Z,30.11
2018-08-30T12:10:55.803Z,30.33
2018-08-30T12:13:25.252Z,30.14
2018-08-30T12:15:54.074Z,29.72
2018-08-30T12:18:22.953Z,29.69
2018-08-30T12:20:51.875Z,30.08
2018-08-30T12:23:20.854Z,30.33
2018-08-30T12:25:49.871Z,30.22
2018-08-30T12:28:18.860Z,30.65
2018-08-30T12:30:47.715Z,30.66
2018-08-30T12:33:16.720Z,30.34
2018-08-30T12:35:45.921Z,29.83
2018-08-30T12:38:14.619Z,30.26
2018-08-30T12:40:43.676Z,29.36
2018-08-30T12:43:12.777Z,30.06
2018-08-30T12:45:41.890Z,30.49
2018-08-30T12:48:10.713Z,29.77
2018-08-30T12:50:39.796Z,30.26
2018-08-30T12:53:09.266Z,29.99
2018-08-30T12:55:38.448Z,30.24
2018-08-30T12:58:07.854Z,30.56
2018-08-30T13:00:37.233Z,30.53
2018-08-30T13:03:06.494Z,30.44
2018-08-30T13:05:35.871Z,30.22
2018-08-30T13:08:05.036Z,30.44
2018-08-30T13:10:34.487Z,30.63
2018-08-30T13:13:03.895Z,30.62
2018-08-30T13:15:33.586Z,30.77
2018-08-30T13:18:02.500Z,30.30
2018-08-30T13:20:31.403Z,30.43
2018-08-30T13:23:00.763Z,29.99
2018-08-30T13:25:29.791Z,30.07
2018-08-30T13:27:59.135Z,29.74
2018-08-30T13:30:28.185Z,30.36
2018-08-30T13:32:57.435Z,30.18
2018-08-30T13:35:26.616Z,29.87
2018-08-30T13:37:55.700Z,30.24
2018-08-30T13:40:25.149Z,29.76
2018-08-30T13:42:54.148Z,30.52
2018-08-30T13:45:23.605Z,30.92
2018-08-30T13:47:52.773Z,31.29
2018-08-30T13:50:21.996Z,31.17
2018-08-30T13:52:51.078Z,31.05
2018-08-30T13:55:20.062Z,30.00
2018-08-30T13:57:49.141Z,30.41
2018-08-30T14:00:18.505Z,30.68
2018-08-30T14:02:48.004Z,31.06
2018-08-30T14:05:17.096Z,30.93
2018-08-30T14:07:46.359Z,30.10
2018-08-30T14:10:15.631Z,30.81
2018-08-30T14:12:44.862Z,31.55
2018-08-30T14:15:14.163Z,31.98
2018-08-30T14:17:42.920Z,32.91
2018-08-30T14:20:11.885Z,32.47
2018-08-30T14:22:40.919Z,32.83
2018-08-30T14:25:10.277Z,32.48
2018-08-30T14:27:39.372Z,32.93
2018-08-30T14:30:08.781Z,33.04
2018-08-30T14:32:38.029Z,33.53
2018-08-30T14:35:07.344Z,32.88
2018-08-30T14:37:36.268Z,33.00
2018-08-30T14:40:05.241Z,32.81
2018-08-30T14:42:34.190Z,33.16
2018-08-30T14:45:03.357Z,33.90
2018-08-30T14:47:32.377Z,33.65
2018-08-30T14:50:01.095Z,33.24
2018-08-30T14:52:30.264Z,32.85
2018-08-30T14:54:59.249Z,33.48
2018-08-30T14:57:28.215Z,33.69
2018-08-30T14:59:57.911Z,33.92
2018-08-30T15:02:26.803Z,32.88
2018-08-30T15:04:56.144Z,32.83
2018-08-30T15:07:25.133Z,32.82
2018-08-30T15:09:54.208Z,32.49
2018-08-30T15:12:23.142Z,31.96
2018-08-30T15:14:52.135Z,31.45
2018-08-30T15:17:21.232Z,31.75
2018-08-30T15:19:50.010Z,31.86
2018-08-30T15:22:18.968Z,31.75
2018-08-30T15:24:48.088Z,31.50
2018-08-30T15:27:17.160Z,31.14
2018-08-30T15:29:46.044Z,31.72
2018-08-30T15:32:14.948Z,31.57
2018-08-30T15:34:43.797Z,31.16
2018-08-30T15:37:12.747Z,31.71
2018-08-30T15:39:41.765Z,31.38
2018-08-30T15:42:10.609Z,31.23
2018-08-30T15:44:39.673Z,31.20
2018-08-30T15:47:08.855Z,31.22
2018-08-30T15:49:37.773Z,31.78
2018-08-30T15:52:06.872Z,30.79
2018-08-30T15:54:35.720Z,31.42
2018-08-30T15:57:04.706Z,31.87
2018-08-30T15:59:33.565Z,31.65
2018-08-30T16:02:02.613Z,32.08
2018-08-30T16:04:31.942Z,31.64
2018-08-30T16:07:01.071Z,31.31
2018-08-30T16:09:30.130Z,30.42
2018-08-30T16:11:59.011Z,30.65
2018-08-30T16:14:27.895Z,30.32
2018-08-30T16:16:56.747Z,29.55
2018-08-30T16:19:25.951Z,29.76
2018-08-30T16:21:55.077Z,29.40
2018-08-30T16:24:24.160Z,29.26
2018-08-30T16:26:53.108Z,29.13
2018-08-30T16:29:22.089Z,28.88
2018-08-30T16:31:51.783Z,28.34
2018-08-30T16:34:20.626Z,27.55
2018-08-30T16:36:50.061Z,27.23
2018-08-30T16:39:19.081Z,26.83
2018-08-30T16:41:48.082Z,26.47
2018-08-30T16:44:17.012Z,26.39
2018-08-30T16:46:46.277Z,26.61
2018-08-30T16:49:15.195Z,26.24
2018-08-30T16:51:44.061Z,26.32
2018-08-30T16:54:13.312Z,26.56
2018-08-30T16:56:42.343Z,26.60
2018-08-30T16:59:11.223Z,26.81
2018-08-30T17:01:40.285Z,26.74
2018-08-30T17:04:09.333Z,26.40
2018-08-30T17:06:38.415Z,26.22
2018-08-30T17:09:08.207Z,25.97
2018-08-30T17:11:37.275Z,26.49
2018-08-30T17:14:06.332Z,26.07
2018-08-30T17:16:35.283Z,25.86
2018-08-30T17:19:28.009Z,25.86
2018-08-30T17:21:56.888Z,26.02
2018-08-30T17:24:26.194Z,26.02
2018-08-30T17:26:55.263Z,25.75
2018-08-30T17:29:24.192Z,25.76
2018-08-30T17:31:53.231Z,25.79
2018-08-30T17:34:22.613Z,25.74
2018-08-30T17:36:51.643Z,26.09
2018-08-30T17:39:20.657Z,25.61
2018-08-30T17:41:49.607Z,25.97
2018-08-30T17:44:18.602Z,25.91
2018-08-30T17:46:47.649Z,25.91
2018-08-30T17:49:16.749Z,25.86
2018-08-30T17:51:45.832Z,25.77
2018-08-30T17:54:14.825Z,25.75
2018-08-30T17:56:43.950Z,25.82
2018-08-30T17:59:13.141Z,25.53
2018-08-30T18:01:42.237Z,25.55
2018-08-30T18:04:11.220Z,25.56
2018-08-30T18:06:40.092Z,26.02
2018-08-30T18:09:09.396Z,26.12
2018-08-30T18:11:38.809Z,25.99
2018-08-30T18:14:07.966Z,26.16
2018-08-30T18:16:37.009Z,25.94
2018-08-30T18:19:05.943Z,26.04
2018-08-30T18:21:35.068Z,25.51
2018-08-30T18:24:04.023Z,25.28
2018-08-30T18:26:32.874Z,25.15
2018-08-30T18:29:01.848Z,25.01
2018-08-30T18:31:31.092Z,24.94
2018-08-30T18:34:00.523Z,25.12
2018-08-30T18:36:29.726Z,24.97
2018-08-30T18:38:58.667Z,25.13
2018-08-30T18:41:27.593Z,24.99
2018-08-30T18:43:56.520Z,25.24
2018-08-30T18:46:25.735Z,25.11
2018-08-30T18:48:54.688Z,25.21
2018-08-30T18:51:23.588Z,25.48
2018-08-30T18:53:53.117Z,25.45
2018-08-30T18:56:22.100Z,25.12
2018-08-30T18:58:51.180Z,25.24
2018-08-30T19:01:20.015Z,25.31
2018-08-30T19:03:49.009Z,25.12
2018-08-30T19:06:18.199Z,25.61
2018-08-30T19:08:47.003Z,25.47
2018-08-30T19:11:15.921Z,25.41
2018-08-30T19:13:44.828Z,25.47
2018-08-30T19:16:18.960Z,25.32
2018-08-30T19:18:52.975Z,25.66
2018-08-30T19:21:22.196Z,25.55
2018-08-30T19:23:51.052Z,25.56
2018-08-30T19:26:20.084Z,25.30
2018-08-30T19:28:49.658Z,25.34
2018-08-30T19:31:18.717Z,25.08
2018-08-30T19:33:47.627Z,25.32
2018-08-30T19:36:22.105Z,25.31
2018-08-30T19:38:51.432Z,25.39
2018-08-30T19:41:21.535Z,25.34
2018-08-30T19:43:51.682Z,25.26
2018-08-30T19:46:21.613Z,25.16
2018-08-30T19:48:50.528Z,24.94
2018-08-30T19:51:19.779Z,24.76
2018-08-30T19:53:48.637Z,25.01
2018-08-30T19:56:17.525Z,24.92
2018-08-30T19:58:46.568Z,24.68
2018-08-30T20:01:15.388Z,24.51
2018-08-30T20:03:44.414Z,24.58
2018-08-30T20:06:13.310Z,24.80
2018-08-30T20:08:42.352Z,24.55
2018-08-30T20:11:11.641Z,24.57
2018-08-30T20:13:40.592Z,24.41
2018-08-30T20:16:09.881Z,24.52
2018-08-30T20:18:38.817Z,24.38
2018-08-30T20:21:08.353Z,24.21
2018-08-30T20:23:37.768Z,24.21
2018-08-30T20:26:07.177Z,24.21
2018-08-30T20:28:36.626Z,24.28
2018-08-30T20:31:05.625Z,24.16
2018-08-30T20:33:34.591Z,24.13
2018-08-30T20:36:03.697Z,24.19
2018-08-30T20:38:32.743Z,24.13
2018-08-30T20:41:01.807Z,24.05
2018-08-30T20:43:31.106Z,24.05
2018-08-30T20:46:00.048Z,24.03
2018-08-30T20:48:28.928Z,24.25
2018-08-30T20:50:58.203Z,24.16
2018-08-30T20:53:27.440Z,24.03
2018-08-30T20:55:56.804Z,24.03
2018-08-30T20:58:26.091Z,24.15
2018-08-30T21:00:55.452Z,24.15
2018-08-30T21:03:24.681Z,24.08
2018-08-30T21:05:53.932Z,24.07
2018-08-30T21:08:22.925Z,24.07
2018-08-30T21:10:51.909Z,23.95
2018-08-30T21:13:20.937Z,23.95
2018-08-30T21:15:49.721Z,24.15
2018-08-30T21:18:18.547Z,24.01
2018-08-30T21:20:47.616Z,24.14
2018-08-30T21:23:16.548Z,24.20
2018-08-30T21:25:45.533Z,24.04
2018-08-30T21:28:14.384Z,23.92
2018-08-30T21:30:43.431Z,23.85
2018-08-30T21:33:12.537Z,23.75
2018-08-30T21:35:41.635Z,23.77
2018-08-30T21:38:10.916Z,23.33
2018-08-30T21:40:39.844Z,23.16
2018-08-30T21:43:09.228Z,22.93
2018-08-30T21:45:38.453Z,23.18
2018-08-30T21:48:07.558Z,22.97
2018-08-30T21:50:36.767Z,22.82
2018-08-30T21:53:06.065Z,22.71
2018-08-30T21:55:35.101Z,22.65
2018-08-30T21:58:05.185Z,22.59
2018-08-30T22:00:34.468Z,22.58
2018-08-30T22:03:03.881Z,22.47
2018-08-30T22:05:32.905Z,22.52
2018-08-30T22:08:02.184Z,22.43
2018-08-30T22:10:31.060Z,22.33
2018-08-30T22:13:00.512Z,22.26
2018-08-30T22:15:29.881Z,22.25
2018-08-30T22:17:58.911Z,22.16
2018-08-30T22:20:27.737Z,22.14
2018-08-30T22:22:56.988Z,22.17
2018-08-30T22:25:25.949Z,22.15
2018-08-30T22:27:54.853Z,22.09
2018-08-30T22:30:23.983Z,22.12
2018-08-30T22:32:53.244Z,22.04
2018-08-30T22:35:22.389Z,22.06
2018-08-30T22:37:51.461Z,21.97
2018-08-30T22:40:20.763Z,22.01
2018-08-30T22:42:49.639Z,21.97
2018-08-30T22:45:18.854Z,21.94
2018-08-30T22:47:47.803Z,21.87
2018-08-30T22:50:16.801Z,21.84
2018-08-30T22:52:45.805Z,21.84
2018-08-30T22:55:14.702Z,21.81
2018-08-30T22:57:44.181Z,21.80
2018-08-30T23:00:13.507Z,21.76
2018-08-30T23:02:42.344Z,21.71
2018-08-30T23:05:11.288Z,21.63
2018-08-30T23:07:40.235Z,21.59
2018-08-30T23:10:09.176Z,21.57
2018-08-30T23:12:38.201Z,21.52
2018-08-30T23:15:07.057Z,21.47
2018-08-30T23:17:36.480Z,21.38
2018-08-30T23:20:05.570Z,21.32
2018-08-30T23:22:34.989Z,21.33
2018-08-30T23:25:04.100Z,21.21
2018-08-30T23:27:32.978Z,21.27
2018-08-30T23:30:02.260Z,21.27
2018-08-30T23:32:31.509Z,21.27
2018-08-30T23:35:00.949Z,21.21
2018-08-30T23:37:29.997Z,21.20
2018-08-30T23:39:59.163Z,21.20
2018-08-30T23:42:28.474Z,21.15
2018-08-30T23:44:57.392Z,21.12
2018-08-30T23:47:26.755Z,21.12
2018-08-30T23:49:55.733Z,21.13
2018-08-30T23:52:24.784Z,21.09
2018-08-30T23:54:53.741Z,21.14
2018-08-30T23:57:22.724Z,21.13
